Time;durP1;ratioP1;P1;durP2;ratioP2;P2;SDS_P1;SDS_P2;PMS_P1;PMS_P2;Temp;Humidity;BMP_temperature;BMP_pressure;BME280_temperature;BME280_humidity;BME280_pressure;Samples;Min_cycle;Max_cycle;Signal;HPM_P1;HPM_P2
2023/06/19 00:00:12;;;;;;;9.90;8.90;;;23.60;68.90;;;;;;6244572;22;20104;-74
2023/06/19 00:02:39;;;;;;;11.15;10.00;;;23.60;69.50;;;;;;6272398;22;20000;-74
2023/06/19 00:05:06;;;;;;;9.57;8.68;;;23.60;69.50;;;;;;6272323;22;20000;-74
2023/06/19 00:07:31;;;;;;;10.85;9.93;;;23.60;69.70;;;;;;6272192;22;20050;-74
2023/06/19 00:09:57;;;;;;;9.43;8.63;;;23.60;69.70;;;;;;6271746;22;20000;-74
2023/06/19 00:12:22;;;;;;;10.10;9.15;;;23.50;69.80;;;;;;6272279;22;20002;-74
2023/06/19 00:14:48;;;;;;;9.38;8.57;;;23.50;69.90;;;;;;6272639;22;19996;-73
2023/06/19 00:17:16;;;;;;;9.15;8.35;;;23.50;70.00;;;;;;6272091;22;20011;-73
2023/06/19 00:19:42;;;;;;;10.27;9.48;;;23.50;70.40;;;;;;6245367;22;20004;-73
2023/06/19 00:22:08;;;;;;;10.48;8.07;;;23.50;70.30;;;;;;6271434;22;19995;-74
2023/06/19 00:24:33;;;;;;;11.73;9.18;;;23.50;70.40;;;;;;6272333;22;20008;-73
2023/06/19 00:27:02;;;;;;;12.77;8.68;;;23.50;70.70;;;;;;6272262;22;20079;-74
2023/06/19 00:29:32;;;;;;;8.73;7.72;;;23.60;71.30;;;;;;6272529;22;20340;-73
2023/06/19 00:31:58;;;;;;;7.88;7.20;;;23.50;71.30;;;;;;6272258;22;20003;-74
2023/06/19 00:34:24;;;;;;;8.57;7.88;;;23.50;71.50;;;;;;6245112;22;20008;-74
2023/06/19 00:36:51;;;;;;;10.60;8.60;;;23.50;71.60;;;;;;6271912;22;20080;-73
2023/06/19 00:39:17;;;;;;;8.05;7.35;;;23.50;71.90;;;;;;6271892;22;20046;-73
2023/06/19 00:41:43;;;;;;;7.90;7.25;;;23.50;72.10;;;;;;6245256;22;20099;-74
2023/06/19 00:44:09;;;;;;;8.57;7.72;;;23.50;72.30;;;;;;6244706;22;20003;-74
2023/06/19 00:46:39;;;;;;;9.38;8.05;;;23.50;72.30;;;;;;6272036;22;20004;-73
2023/06/19 00:49:06;;;;;;;9.05;6.90;;;23.50;72.40;;;;;;6272195;22;19999;-74
2023/06/19 00:51:31;;;;;;;8.07;6.45;;;23.50;72.50;;;;;;6244327;22;20676;-73
2023/06/19 00:53:57;;;;;;;9.13;7.65;;;23.50;72.40;;;;;;6244919;22;20000;-73
2023/06/19 00:56:22;;;;;;;7.78;6.85;;;23.50;72.40;;;;;;6245015;22;20083;-74
2023/06/19 00:58:48;;;;;;;7.45;6.65;;;23.50;72.90;;;;;;6272366;22;20082;-74
2023/06/19 01:01:14;;;;;;;6.90;6.40;;;23.50;72.20;;;;;;6244175;22;20512;-73
2023/06/19 01:03:39;;;;;;;7.43;6.72;;;23.60;72.20;;;;;;6272268;22;20004;-74
2023/06/19 01:06:10;;;;;;;8.95;6.97;;;23.50;72.10;;;;;;6271167;22;19996;-74
2023/06/19 01:08:55;;;;;;;8.40;7.22;;;23.50;72.10;;;;;;6244991;22;20057;-74
2023/06/19 01:11:24;;;;;;;7.05;6.35;;;23.50;72.10;;;;;;6273632;22;20043;-74
2023/06/19 01:14:21;;;;;;;8.88;6.38;;;23.50;72.10;;;;;;6247077;22;20332;-74
2023/06/19 01:16:47;;;;;;;9.07;6.55;;;23.50;72.00;;;;;;6274450;22;20000;-74
2023/06/19 01:19:19;;;;;;;6.45;5.85;;;23.50;72.00;;;;;;6273606;22;20214;-74
2023/06/19 01:21:46;;;;;;;7.53;6.85;;;23.50;72.00;;;;;;6274628;22;20008;-73
2023/06/19 01:24:12;;;;;;;6.90;6.15;;;23.50;72.00;;;;;;6247008;22;20027;-73
2023/06/19 01:26:38;;;;;;;7.18;6.38;;;23.50;72.10;;;;;;6274575;22;20054;-74
2023/06/19 01:29:04;;;;;;;6.57;5.97;;;23.50;72.20;;;;;;6274046;22;20000;-74
2023/06/19 01:31:40;;;;;;;6.38;5.78;;;23.40;72.30;;;;;;6273825;22;20007;-74
2023/06/19 01:34:07;;;;;;;6.28;5.13;;;23.40;72.50;;;;;;6246864;22;20053;-74
2023/06/19 01:36:35;;;;;;;8.10;6.00;;;23.30;72.40;;;;;;6273270;22;20071;-74
2023/06/19 01:39:01;;;;;;;6.45;5.85;;;23.30;72.70;;;;;;6246613;22;20007;-74
2023/06/19 01:41:29;;;;;;;6.65;5.45;;;23.20;72.90;;;;;;6274497;22;20083;-73
2023/06/19 01:43:56;;;;;;;7.88;6.30;;;23.10;73.00;;;;;;6247259;22;20000;-74
2023/06/19 01:46:22;;;;;;;7.80;5.80;;;23.10;73.40;;;;;;6273711;22;20002;-74
2023/06/19 01:48:47;;;;;;;6.00;5.13;;;23.00;73.50;;;;;;6246686;22;20003;-74
2023/06/19 01:51:13;;;;;;;6.03;5.45;;;22.90;73.70;;;;;;6245763;22;20016;-74
2023/06/19 01:53:38;;;;;;;5.55;5.05;;;22.90;73.90;;;;;;6273803;22;20004;-74
2023/06/19 01:56:04;;;;;;;7.68;6.32;;;22.90;74.10;;;;;;6273608;22;20011;-74
2023/06/19 01:58:30;;;;;;;8.15;4.68;;;22.70;74.30;;;;;;6273572;22;20004;-73
2023/06/19 02:00:55;;;;;;;6.07;5.15;;;22.70;74.60;;;;;;6273203;22;20011;-74
2023/06/19 02:03:21;;;;;;;5.47;4.97;;;22.70;74.80;;;;;;6273614;22;20079;-74
2023/06/19 02:05:47;;;;;;;5.43;4.63;;;22.60;75.00;;;;;;6246006;22;20000;-74
2023/06/19 02:08:12;;;;;;;5.90;5.40;;;22.60;75.10;;;;;;6273441;22;20047;-75
2023/06/19 02:10:38;;;;;;;5.15;4.68;;;22.50;75.30;;;;;;6273658;22;20318;-74
2023/06/19 02:13:03;;;;;;;7.13;4.53;;;22.50;75.50;;;;;;6273691;22;20103;-74
2023/06/19 02:15:29;;;;;;;5.38;4.88;;;22.50;75.80;;;;;;6273492;22;20002;-74
2023/06/19 02:17:58;;;;;;;5.70;5.05;;;22.40;76.10;;;;;;6273733;22;20417;-73
2023/06/19 02:20:24;;;;;;;5.57;4.78;;;22.40;76.50;;;;;;6272862;22;20008;-74
2023/06/19 02:22:50;;;;;;;5.53;4.70;;;22.30;77.10;;;;;;6273480;22;20006;-74
2023/06/19 02:25:16;;;;;;;4.95;4.40;;;22.30;77.20;;;;;;6245749;22;20007;-74
2023/06/19 02:27:41;;;;;;;6.57;4.55;;;22.20;77.50;;;;;;6273775;22;19996;-74
2023/06/19 02:30:07;;;;;;;5.00;4.50;;;22.10;77.90;;;;;;6273241;22;20003;-74
2023/06/19 02:32:33;;;;;;;5.90;5.32;;;22.10;78.30;;;;;;6273213;22;19996;-74
2023/06/19 02:34:58;;;;;;;5.78;4.35;;;22.10;78.50;;;;;;6272565;22;20325;-74
2023/06/19 02:37:24;;;;;;;5.63;4.70;;;22.00;78.50;;;;;;6273259;22;20007;-74
2023/06/19 02:39:50;;;;;;;6.30;5.03;;;22.00;78.70;;;;;;6246162;22;20083;-74
2023/06/19 02:42:15;;;;;;;5.05;4.55;;;22.00;78.90;;;;;;6245984;22;20007;-74
2023/06/19 02:44:42;;;;;;;5.55;4.65;;;21.90;79.00;;;;;;6273474;22;20026;-74
2023/06/19 02:47:07;;;;;;;5.28;4.78;;;21.90;79.30;;;;;;6245590;22;20333;-75
2023/06/19 02:49:33;;;;;;;4.93;4.43;;;21.90;79.50;;;;;;6273078;22;20000;-74
2023/06/19 02:51:59;;;;;;;4.97;4.47;;;21.80;79.70;;;;;;6272943;22;20003;-74
2023/06/19 02:54:24;;;;;;;4.47;4.07;;;21.80;80.10;;;;;;6273108;22;20011;-74
2023/06/19 02:56:50;;;;;;;5.93;4.10;;;21.70;80.30;;;;;;6273645;22;20150;-74
2023/06/19 02:59:15;;;;;;;5.32;4.30;;;21.70;80.60;;;;;;6272633;22;20000;-74
2023/06/19 03:01:41;;;;;;;4.85;4.45;;;21.60;80.70;;;;;;6272757;22;20011;-74
2023/06/19 03:04:06;;;;;;;5.95;3.28;;;21.50;80.90;;;;;;6272876;22;20122;-74
2023/06/19 03:06:39;;;;;;;3.50;2.97;;;21.60;81.40;;;;;;6272940;22;20061;-74
2023/06/19 03:09:11;;;;;;;2.55;2.35;;;21.50;81.70;;;;;;6272907;22;20341;-74
2023/06/19 03:11:38;;;;;;;4.57;2.80;;;21.50;81.80;;;;;;6273383;22;20053;-74
2023/06/19 03:14:07;;;;;;;2.72;2.35;;;21.60;82.30;;;;;;6272964;22;20007;-74
2023/06/19 03:16:33;;;;;;;3.53;2.80;;;21.60;82.40;;;;;;6244489;22;20053;-73
2023/06/19 03:18:58;;;;;;;3.15;2.85;;;21.60;82.40;;;;;;6244403;22;20006;-74
2023/06/19 03:21:24;;;;;;;2.90;2.60;;;21.60;83.20;;;;;;6272322;22;20074;-74
2023/06/19 03:23:50;;;;;;;6.40;3.25;;;21.60;82.70;;;;;;6272557;22;20031;-74
2023/06/19 03:26:15;;;;;;;3.75;3.45;;;21.60;82.80;;;;;;6272498;22;20067;-74
2023/06/19 03:28:41;;;;;;;6.22;3.67;;;21.50;83.00;;;;;;6271228;22;20067;-74
2023/06/19 03:31:06;;;;;;;4.60;3.13;;;21.50;83.10;;;;;;6244971;22;20007;-74
2023/06/19 03:33:32;;;;;;;4.63;3.40;;;21.50;83.40;;;;;;6244941;22;20032;-74
2023/06/19 03:35:58;;;;;;;3.15;2.50;;;21.40;83.60;;;;;;6245601;22;20060;-74
2023/06/19 03:38:23;;;;;;;3.60;3.00;;;21.40;83.80;;;;;;6272680;22;20299;-74
2023/06/19 03:40:49;;;;;;;3.63;3.15;;;21.50;84.00;;;;;;6273157;22;20003;-74
2023/06/19 03:43:14;;;;;;;6.20;2.72;;;21.50;84.20;;;;;;6245111;22;20008;-74
2023/06/19 03:45:40;;;;;;;3.60;2.97;;;21.50;84.10;;;;;;6272487;22;20007;-74
2023/06/19 03:48:05;;;;;;;3.05;2.70;;;21.60;84.20;;;;;;6245392;22;20000;-74
2023/06/19 03:50:31;;;;;;;3.42;2.67;;;21.60;84.10;;;;;;6272621;22;20031;-74
2023/06/19 03:52:57;;;;;;;5.00;2.90;;;21.60;84.00;;;;;;6245325;22;20004;-74
2023/06/19 03:55:22;;;;;;;3.40;3.05;;;21.70;84.10;;;;;;6272588;22;20003;-74
2023/06/19 03:57:48;;;;;;;3.33;2.70;;;21.70;84.00;;;;;;6272992;22;20325;-74
2023/06/19 04:00:14;;;;;;;3.58;3.25;;;21.70;83.90;;;;;;6244433;22;20034;-74
2023/06/19 04:02:40;;;;;;;4.00;3.08;;;21.80;84.00;;;;;;6272446;22;20061;-74
2023/06/19 04:05:06;;;;;;;4.22;3.30;;;21.80;84.00;;;;;;6245362;22;19999;-74
2023/06/19 04:07:32;;;;;;;5.85;3.75;;;21.80;84.10;;;;;;6245225;22;20004;-74
2023/06/19 04:09:58;;;;;;;2.83;2.13;;;21.80;84.20;;;;;;6272649;22;20010;-74
2023/06/19 04:12:24;;;;;;;5.15;2.75;;;21.80;84.20;;;;;;6272559;22;20032;-74
2023/06/19 04:14:49;;;;;;;3.17;2.60;;;21.80;84.30;;;;;;6272227;22;20460;-73
2023/06/19 04:17:15;;;;;;;5.15;3.33;;;21.80;84.30;;;;;;6271711;22;20027;-74
2023/06/19 04:19:41;;;;;;;3.95;2.88;;;21.90;84.50;;;;;;6272732;22;20003;-74
2023/06/19 04:22:07;;;;;;;4.00;3.45;;;21.80;84.60;;;;;;6272145;22;20078;-74
2023/06/19 04:24:32;;;;;;;4.40;2.63;;;21.80;84.70;;;;;;6272413;22;20079;-74
2023/06/19 04:26:58;;;;;;;4.05;3.55;;;21.80;84.80;;;;;;6272242;22;20421;-74
2023/06/19 04:29:23;;;;;;;4.18;3.13;;;21.80;85.00;;;;;;6244505;22;20098;-73
2023/06/19 04:31:49;;;;;;;4.25;3.40;;;21.80;85.10;;;;;;6272365;22;20007;-74
2023/06/19 04:34:21;;;;;;;5.40;4.15;;;21.90;85.10;;;;;;6271867;22;20366;-73
2023/06/19 04:36:48;;;;;;;5.17;3.30;;;21.90;85.90;;;;;;6245160;22;20011;-74
2023/06/19 04:39:13;;;;;;;4.95;3.60;;;21.90;85.30;;;;;;6272042;22;20003;-73
2023/06/19 04:41:40;;;;;;;5.90;3.55;;;22.00;85.50;;;;;;6244995;22;20012;-73
2023/06/19 04:44:07;;;;;;;4.00;3.58;;;22.00;85.40;;;;;;6244219;22;20003;-73
2023/06/19 04:46:33;;;;;;;3.67;3.30;;;22.00;85.70;;;;;;6271895;22;19999;-73
2023/06/19 04:48:58;;;;;;;5.68;3.22;;;22.00;85.90;;;;;;6272079;22;20007;-73
2023/06/19 04:51:26;;;;;;;4.88;3.70;;;22.00;86.00;;;;;;6244854;22;20430;-73
2023/06/19 04:53:51;;;;;;;4.28;3.88;;;22.00;86.10;;;;;;6272521;22;20004;-74
2023/06/19 04:56:17;;;;;;;4.28;3.85;;;22.10;86.30;;;;;;6271696;22;20061;-73
2023/06/19 04:58:47;;;;;;;6.53;3.63;;;22.10;86.40;;;;;;6244997;22;20011;-73
2023/06/19 05:01:13;;;;;;;6.32;4.25;;;22.00;86.40;;;;;;6271286;22;20112;-73
2023/06/19 05:03:39;;;;;;;4.28;3.88;;;22.00;86.50;;;;;;6272340;22;20023;-73
2023/06/19 05:06:05;;;;;;;6.05;4.38;;;22.00;86.60;;;;;;6272676;22;20075;-72
2023/06/19 05:08:31;;;;;;;4.90;4.50;;;22.10;86.90;;;;;;6245509;22;20896;-73
2023/06/19 05:10:58;;;;;;;4.72;4.32;;;22.00;86.90;;;;;;6272437;22;20027;-73
2023/06/19 05:13:24;;;;;;;6.22;3.92;;;22.00;87.10;;;;;;6244288;22;20058;-73
2023/06/19 05:15:51;;;;;;;5.07;4.63;;;22.00;87.40;;;;;;6272350;22;20008;-73
2023/06/19 05:18:17;;;;;;;4.45;4.05;;;22.00;87.70;;;;;;6271620;22;19999;-73
2023/06/19 05:20:43;;;;;;;6.45;5.13;;;22.00;88.00;;;;;;6272155;22;20010;-73
2023/06/19 05:23:08;;;;;;;5.40;4.90;;;21.90;88.10;;;;;;6272115;22;19996;-73
2023/06/19 05:25:34;;;;;;;6.10;5.50;;;21.90;89.00;;;;;;6272301;22;20332;-73
2023/06/19 05:27:59;;;;;;;5.32;4.82;;;21.90;88.90;;;;;;6244707;22;20725;-74
2023/06/19 05:30:25;;;;;;;6.20;5.60;;;21.80;89.60;;;;;;6271963;22;20042;-73
2023/06/19 05:32:51;;;;;;;5.80;5.35;;;21.80;89.70;;;;;;6272213;22;20003;-73
2023/06/19 05:35:16;;;;;;;7.53;5.43;;;21.80;90.00;;;;;;6244399;22;20043;-73
2023/06/19 05:37:43;;;;;;;5.80;5.30;;;21.80;90.20;;;;;;6245137;22;20061;-73
2023/06/19 05:40:10;;;;;;;6.18;5.22;;;21.90;90.10;;;;;;6271732;22;20003;-73
2023/06/19 05:42:36;;;;;;;6.75;5.30;;;22.00;90.20;;;;;;6244217;22;20439;-73
2023/06/19 05:45:03;;;;;;;6.38;5.75;;;22.00;90.10;;;;;;6271599;22;20019;-73
2023/06/19 05:47:30;;;;;;;6.90;6.30;;;22.10;90.10;;;;;;6270810;22;20452;-73
2023/06/19 05:49:59;;;;;;;6.55;5.95;;;22.20;90.00;;;;;;6269604;22;20006;-73
2023/06/19 05:52:24;;;;;;;9.48;6.60;;;22.20;89.90;;;;;;6270126;22;20004;-73
2023/06/19 05:54:50;;;;;;;7.50;6.80;;;22.20;89.60;;;;;;6244930;22;20413;-73
2023/06/19 05:57:20;;;;;;;6.95;6.28;;;22.40;89.50;;;;;;6271903;22;20000;-73
2023/06/19 05:59:49;;;;;;;7.93;7.22;;;22.40;89.40;;;;;;6274308;22;20047;-73
2023/06/19 06:02:15;;;;;;;6.70;6.10;;;22.40;89.40;;;;;;6246708;22;20011;-73
2023/06/19 06:04:42;;;;;;;8.52;7.72;;;22.40;89.30;;;;;;6247002;22;20306;-73
2023/06/19 06:07:08;;;;;;;7.13;6.53;;;22.40;89.30;;;;;;6273509;22;19999;-73
2023/06/19 06:09:34;;;;;;;8.98;7.95;;;22.40;89.20;;;;;;6273483;22;20040;-73
2023/06/19 06:12:00;;;;;;;8.73;7.88;;;22.50;89.20;;;;;;6272910;22;20007;-73
2023/06/19 06:14:26;;;;;;;14.40;8.57;;;22.50;89.10;;;;;;6273388;22;20074;-74
2023/06/19 06:16:51;;;;;;;9.25;8.35;;;22.50;88.90;;;;;;6246548;22;20027;-73
2023/06/19 06:19:17;;;;;;;9.00;8.10;;;22.60;88.90;;;;;;6245648;22;20004;-73
2023/06/19 06:21:43;;;;;;;9.02;7.95;;;22.60;88.80;;;;;;6273682;22;20090;-73
2023/06/19 06:24:09;;;;;;;10.82;9.13;;;22.60;88.90;;;;;;6273247;22;20421;-73
2023/06/19 06:26:35;;;;;;;8.98;8.18;;;22.60;88.90;;;;;;6272744;22;20000;-73
2023/06/19 06:29:00;;;;;;;8.63;7.80;;;22.60;89.00;;;;;;6273188;22;20050;-73
2023/06/19 06:31:27;;;;;;;9.75;8.50;;;22.50;89.00;;;;;;6246171;22;20012;-74
2023/06/19 06:33:52;;;;;;;16.38;8.80;;;22.50;89.20;;;;;;6246128;22;20708;-73
2023/06/19 06:36:18;;;;;;;9.45;8.55;;;22.40;89.50;;;;;;6273037;22;20000;-73
2023/06/19 06:38:44;;;;;;;8.23;7.53;;;22.40;89.70;;;;;;6273460;22;20006;-74
2023/06/19 06:41:10;;;;;;;9.52;8.82;;;22.30;89.70;;;;;;6272519;22;20029;-73
2023/06/19 06:43:35;;;;;;;9.07;8.25;;;22.20;90.00;;;;;;6273142;22;20074;-73
2023/06/19 06:46:01;;;;;;;9.50;8.70;;;22.30;90.10;;;;;;6246103;22;20008;-73
2023/06/19 06:48:26;;;;;;;10.30;9.15;;;22.20;90.10;;;;;;6273068;22;19999;-73
2023/06/19 06:51:00;;;;;;;9.57;8.63;;;22.20;90.20;;;;;;6273534;22;20438;-73
2023/06/19 06:53:28;;;;;;;9.85;8.90;;;22.20;90.40;;;;;;6273094;22;20078;-73
2023/06/19 06:55:53;;;;;;;10.55;9.55;;;22.20;90.10;;;;;;6272704;22;20332;-74
2023/06/19 06:58:19;;;;;;;10.45;9.55;;;22.20;90.10;;;;;;6245946;22;20090;-73
2023/06/19 07:00:45;;;;;;;10.77;9.70;;;22.20;90.20;;;;;;6270173;22;20047;-73
2023/06/19 07:03:11;;;;;;;10.73;9.45;;;22.30;90.20;;;;;;6270248;22;20578;-73
2023/06/19 07:05:36;;;;;;;12.95;9.35;;;22.30;90.20;;;;;;6269319;22;20066;-73
2023/06/19 07:08:03;;;;;;;7.97;7.28;;;22.30;90.10;;;;;;6272525;22;20018;-73
2023/06/19 07:10:29;;;;;;;8.32;7.53;;;22.30;89.90;;;;;;6271061;22;19999;-74
2023/06/19 07:12:55;;;;;;;8.35;7.10;;;22.20;89.40;;;;;;6272374;22;19999;-74
2023/06/19 07:15:20;;;;;;;6.95;6.25;;;22.40;89.00;;;;;;6271457;22;20026;-73
2023/06/19 07:17:46;;;;;;;8.52;6.32;;;22.50;88.40;;;;;;6244270;22;20003;-74
2023/06/19 07:20:12;;;;;;;7.05;6.45;;;22.60;87.50;;;;;;6271517;22;20000;-73
2023/06/19 07:22:38;;;;;;;6.68;5.68;;;22.70;86.80;;;;;;6272329;22;20055;-74
2023/06/19 07:25:04;;;;;;;6.78;6.28;;;22.80;86.00;;;;;;6271698;22;20007;-74
2023/06/19 07:27:30;;;;;;;8.48;6.68;;;23.00;85.20;;;;;;6269975;22;20007;-71
2023/06/19 07:29:56;;;;;;;6.95;6.35;;;23.20;84.60;;;;;;6270923;22;20448;-73
2023/06/19 07:32:22;;;;;;;7.10;6.05;;;23.40;83.90;;;;;;6272500;22;19999;-72
2023/06/19 07:34:47;;;;;;;6.82;6.13;;;23.50;83.20;;;;;;6245745;22;20073;-73
2023/06/19 07:37:17;;;;;;;6.82;6.20;;;23.80;82.30;;;;;;6271665;22;20234;-73
2023/06/19 07:39:48;;;;;;;8.77;7.63;;;24.00;81.30;;;;;;6271476;22;20081;-73
2023/06/19 07:42:15;;;;;;;8.43;7.68;;;24.20;80.50;;;;;;6271620;22;20494;-73
2023/06/19 07:44:41;;;;;;;10.50;8.48;;;24.20;79.80;;;;;;6245175;22;20024;-73
2023/06/19 07:47:07;;;;;;;12.25;11.05;;;24.20;79.20;;;;;;6272144;22;19996;-73
2023/06/19 07:49:33;;;;;;;9.85;9.00;;;24.30;79.10;;;;;;6270584;22;20027;-73
2023/06/19 07:51:58;;;;;;;10.13;9.13;;;24.40;79.20;;;;;;6271789;22;20053;-73
2023/06/19 07:54:24;;;;;;;10.60;9.70;;;24.50;78.80;;;;;;6272193;22;20059;-73
2023/06/19 07:56:50;;;;;;;10.57;9.77;;;24.50;77.80;;;;;;6271433;22;20004;-74
2023/06/19 07:59:16;;;;;;;11.35;10.20;;;24.40;77.60;;;;;;6271450;22;20065;-73
2023/06/19 08:01:42;;;;;;;11.25;10.38;;;24.40;77.40;;;;;;6270965;22;20000;-73
2023/06/19 08:04:08;;;;;;;15.52;14.02;;;24.30;77.30;;;;;;6271674;22;20025;-74
2023/06/19 08:06:33;;;;;;;13.40;12.20;;;24.30;77.20;;;;;;6243546;22;20333;-73
2023/06/19 08:08:59;;;;;;;12.38;11.35;;;24.30;77.10;;;;;;6271927;22;20075;-73
2023/06/19 08:11:24;;;;;;;10.18;9.27;;;24.20;76.80;;;;;;6270658;22;20089;-73
2023/06/19 08:13:50;;;;;;;11.75;10.75;;;24.20;76.90;;;;;;6272634;22;20668;-74
2023/06/19 08:16:15;;;;;;;12.25;11.15;;;24.30;76.80;;;;;;6271490;22;20069;-73
2023/06/19 08:18:42;;;;;;;12.90;11.57;;;24.30;76.50;;;;;;6245077;22;19999;-73
2023/06/19 08:21:07;;;;;;;12.07;11.00;;;24.30;76.30;;;;;;6270414;22;20008;-73
2023/06/19 08:23:33;;;;;;;12.00;10.90;;;24.30;76.40;;;;;;6270159;22;20024;-73
2023/06/19 08:25:58;;;;;;;12.52;11.35;;;24.40;76.00;;;;;;6244111;22;20440;-73
2023/06/19 08:28:24;;;;;;;12.00;10.98;;;24.40;76.00;;;;;;6271481;22;20557;-73
2023/06/19 08:30:49;;;;;;;13.50;11.93;;;24.50;75.80;;;;;;6272517;22;20038;-72
2023/06/19 08:33:15;;;;;;;11.63;10.63;;;24.50;75.50;;;;;;6242504;22;20012;-73
2023/06/19 08:35:40;;;;;;;13.30;11.23;;;24.50;75.60;;;;;;6270203;22;20008;-73
2023/06/19 08:38:06;;;;;;;14.50;13.05;;;24.40;75.60;;;;;;6271687;22;20000;-72
2023/06/19 08:40:33;;;;;;;14.45;13.10;;;24.40;75.90;;;;;;6271057;22;20015;-73
2023/06/19 08:42:58;;;;;;;14.88;13.43;;;24.30;75.90;;;;;;6269550;22;20004;-73
2023/06/19 08:45:26;;;;;;;14.75;13.45;;;24.30;76.10;;;;;;6270112;22;20456;-73
2023/06/19 08:48:05;;;;;;;14.90;13.60;;;24.40;76.00;;;;;;6271582;22;20434;-73
2023/06/19 08:50:31;;;;;;;13.18;11.63;;;24.40;76.20;;;;;;6270889;22;19999;-73
2023/06/19 08:52:57;;;;;;;14.80;13.50;;;24.40;76.30;;;;;;6270658;22;20004;-73
2023/06/19 08:55:23;;;;;;;14.10;12.88;;;24.50;76.40;;;;;;6269584;22;20000;-72
2023/06/19 08:57:50;;;;;;;13.98;12.80;;;24.60;76.50;;;;;;6272605;22;20011;-72
2023/06/19 09:00:26;;;;;;;15.38;13.82;;;24.80;76.20;;;;;;6270597;22;20003;-73
2023/06/19 09:02:52;;;;;;;13.73;12.52;;;24.90;76.00;;;;;;6272208;22;20003;-73
2023/06/19 09:05:19;;;;;;;14.15;12.77;;;25.00;75.90;;;;;;6270476;22;20004;-73
2023/06/19 09:07:58;;;;;;;12.90;11.80;;;25.10;75.60;;;;;;6271495;22;20077;-72
2023/06/19 09:10:24;;;;;;;14.18;12.77;;;25.10;75.30;;;;;;6272649;22;20022;-72
2023/06/19 09:13:00;;;;;;;14.93;13.70;;;25.00;75.20;;;;;;6272344;22;20434;-72
2023/06/19 09:15:36;;;;;;;14.57;13.18;;;24.90;75.60;;;;;;6271529;22;20023;-72
2023/06/19 09:18:03;;;;;;;15.45;13.98;;;24.80;76.60;;;;;;6244028;22;20003;-72
2023/06/19 09:20:29;;;;;;;15.63;14.27;;;24.70;76.00;;;;;;6270664;22;20008;-72
2023/06/19 09:22:55;;;;;;;14.95;13.73;;;24.70;76.20;;;;;;6271177;22;20004;-72
2023/06/19 09:25:23;;;;;;;14.05;12.65;;;24.80;76.20;;;;;;6271720;22;20000;-71
2023/06/19 09:27:49;;;;;;;16.50;15.10;;;24.90;76.40;;;;;;6243342;22;20010;-72
2023/06/19 09:30:17;;;;;;;15.30;13.75;;;25.10;75.90;;;;;;6271527;22;20458;-72
2023/06/19 09:32:43;;;;;;;13.18;11.98;;;25.30;75.70;;;;;;6272885;22;20000;-72
2023/06/19 09:35:08;;;;;;;15.23;13.95;;;25.50;75.30;;;;;;6272775;22;20011;-72
2023/06/19 09:37:35;;;;;;;15.10;13.75;;;25.70;74.40;;;;;;6272621;22;20026;-72
2023/06/19 09:40:10;;;;;;;13.27;12.20;;;25.80;74.10;;;;;;6273059;22;20266;-72
2023/06/19 09:42:38;;;;;;;14.60;13.25;;;26.00;74.10;;;;;;6274141;22;20307;-72
2023/06/19 09:45:09;;;;;;;16.02;14.68;;;26.10;73.70;;;;;;6273664;22;19999;-72
2023/06/19 09:47:45;;;;;;;13.43;12.32;;;26.30;73.20;;;;;;6273441;22;20022;-73
2023/06/19 09:50:14;;;;;;;14.77;13.40;;;26.40;73.00;;;;;;6271059;22;19992;-73
2023/06/19 09:52:43;;;;;;;16.42;14.70;;;26.30;72.40;;;;;;6272963;22;20008;-73
2023/06/19 09:55:14;;;;;;;18.02;16.48;;;26.10;72.00;;;;;;6272387;22;20325;-71
2023/06/19 09:57:41;;;;;;;16.30;14.50;;;25.90;72.20;;;;;;6273322;22;20140;-73
2023/06/19 10:00:22;;;;;;;15.32;13.75;;;25.80;72.70;;;;;;6242695;22;20023;-72
2023/06/19 10:02:48;;;;;;;18.17;16.38;;;25.80;72.90;;;;;;6271712;22;19992;-73
2023/06/19 10:05:14;;;;;;;18.20;16.50;;;25.90;72.90;;;;;;6244371;22;20018;-73
2023/06/19 10:07:45;;;;;;;16.23;14.73;;;25.90;72.70;;;;;;6272852;22;20004;-75
2023/06/19 10:10:21;;;;;;;14.68;13.38;;;26.10;72.80;;;;;;6271830;22;20027;-73
2023/06/19 10:12:47;;;;;;;17.38;15.98;;;26.10;72.50;;;;;;6271259;22;20004;-73
2023/06/19 10:15:23;;;;;;;18.40;16.75;;;26.10;72.20;;;;;;6271782;22;20027;-73
2023/06/19 10:17:53;;;;;;;18.23;16.38;;;26.10;72.00;;;;;;6244281;22;20003;-73
2023/06/19 10:20:38;;;;;;;15.27;14.02;;;26.10;72.30;;;;;;6272354;22;20004;-73
2023/06/19 10:23:21;;;;;;;18.83;17.23;;;26.00;72.30;;;;;;6243680;22;20004;-73
2023/06/19 10:25:55;;;;;;;20.05;18.33;;;25.90;72.20;;;;;;6273394;22;20000;-73
2023/06/19 10:28:33;;;;;;;20.13;18.42;;;25.80;72.20;;;;;;6273151;22;20079;-73
2023/06/19 10:31:01;;;;;;;19.17;17.63;;;25.70;72.10;;;;;;6272999;22;20030;-73
2023/06/19 10:33:29;;;;;;;17.83;16.23;;;25.70;72.30;;;;;;6270342;22;20092;-73
2023/06/19 10:35:55;;;;;;;22.58;20.77;;;25.70;72.50;;;;;;6272779;22;20143;-72
2023/06/19 10:38:20;;;;;;;20.83;19.20;;;25.70;72.50;;;;;;6272229;22;20408;-72
2023/06/19 10:40:46;;;;;;;20.77;18.83;;;25.70;72.50;;;;;;6272747;22;20075;-72
2023/06/19 10:43:13;;;;;;;18.38;16.85;;;25.70;72.60;;;;;;6270904;22;20486;-75
2023/06/19 10:45:38;;;;;;;19.25;17.55;;;25.80;72.70;;;;;;6271566;22;20004;-77
2023/06/19 10:48:05;;;;;;;21.08;19.15;;;25.90;72.50;;;;;;6272379;22;20052;-73
2023/06/19 10:50:42;;;;;;;22.50;20.63;;;26.00;72.10;;;;;;6272300;22;20024;-73
2023/06/19 10:53:08;;;;;;;21.80;20.00;;;26.10;72.00;;;;;;6271782;22;20034;-72
2023/06/19 10:55:33;;;;;;;24.42;22.33;;;26.10;71.70;;;;;;6270484;22;20004;-75
2023/06/19 10:57:59;;;;;;;19.02;17.40;;;26.10;71.40;;;;;;6271899;22;20000;-76
2023/06/19 11:00:24;;;;;;;21.15;19.45;;;26.00;71.70;;;;;;6271341;22;20073;-75
2023/06/19 11:02:50;;;;;;;19.10;17.40;;;26.00;71.70;;;;;;6272609;22;20042;-74
2023/06/19 11:05:16;;;;;;;20.02;18.35;;;26.10;71.70;;;;;;6242997;22;20004;-76
2023/06/19 11:07:42;;;;;;;21.00;19.40;;;26.30;71.80;;;;;;6271941;22;20058;-77
2023/06/19 11:10:18;;;;;;;21.17;19.17;;;26.50;71.40;;;;;;6244392;22;20078;-75
2023/06/19 11:12:44;;;;;;;18.17;16.58;;;26.70;70.90;;;;;;6272261;22;20070;-73
2023/06/19 11:15:10;;;;;;;18.52;17.02;;;27.00;70.10;;;;;;6244762;22;20088;-77
2023/06/19 11:17:36;;;;;;;19.70;18.05;;;27.10;69.60;;;;;;6270548;22;20004;-73
2023/06/19 11:20:04;;;;;;;21.55;19.85;;;27.40;69.30;;;;;;6271655;22;20079;-73
2023/06/19 11:22:40;;;;;;;21.05;19.35;;;27.50;68.60;;;;;;6272426;22;20023;-74
2023/06/19 11:25:06;;;;;;;21.15;19.48;;;27.50;68.30;;;;;;6271962;22;19999;-72
2023/06/19 11:27:32;;;;;;;20.02;18.35;;;27.50;68.20;;;;;;6270104;22;20019;-74
2023/06/19 11:29:58;;;;;;;19.63;18.00;;;27.50;68.10;;;;;;6270956;22;20383;-73
2023/06/19 11:32:30;;;;;;;20.38;18.48;;;27.50;68.20;;;;;;6245169;22;20011;-70
2023/06/19 11:34:56;;;;;;;21.33;19.52;;;27.50;68.00;;;;;;6272415;22;20000;-71
2023/06/19 11:37:22;;;;;;;19.50;17.83;;;27.40;67.50;;;;;;6271157;22;20075;-71
2023/06/19 11:39:49;;;;;;;20.50;18.70;;;27.40;67.30;;;;;;6271376;22;20026;-74
2023/06/19 11:42:17;;;;;;;20.40;18.70;;;27.30;67.40;;;;;;6271763;22;20531;-75
2023/06/19 11:45:06;;;;;;;20.17;18.40;;;27.40;67.50;;;;;;6271044;22;19995;-71
2023/06/19 11:47:32;;;;;;;19.85;18.35;;;27.40;67.60;;;;;;6245043;22;20011;-73
2023/06/19 11:49:59;;;;;;;21.40;19.52;;;27.40;67.60;;;;;;6242499;22;20004;-72
2023/06/19 11:52:24;;;;;;;16.85;15.35;;;27.40;67.40;;;;;;6271232;22;20007;-74
2023/06/19 11:54:50;;;;;;;16.63;15.02;;;27.50;67.40;;;;;;6243482;22;20039;-71
2023/06/19 11:57:15;;;;;;;16.33;14.93;;;27.40;66.80;;;;;;6270193;22;20008;-74
2023/06/19 11:59:42;;;;;;;17.73;16.00;;;27.30;66.50;;;;;;6268648;22;20074;-73
2023/06/19 12:02:09;;;;;;;18.35;16.15;;;27.20;66.50;;;;;;6270913;22;20000;-73
2023/06/19 12:04:35;;;;;;;17.27;15.77;;;27.10;66.30;;;;;;6244767;22;20003;-75
2023/06/19 12:07:01;;;;;;;15.93;14.43;;;27.00;66.20;;;;;;6272098;22;19999;-76
2023/06/19 12:09:27;;;;;;;14.50;13.35;;;27.00;66.30;;;;;;6271864;22;20070;-78
2023/06/19 12:11:53;;;;;;;14.48;13.05;;;27.00;66.40;;;;;;6270849;22;20004;-74
2023/06/19 12:14:19;;;;;;;12.70;11.60;;;27.00;66.00;;;;;;6271329;22;20002;-76
2023/06/19 12:16:48;;;;;;;14.65;13.25;;;26.90;65.10;;;;;;6272448;22;20393;-75
2023/06/19 12:19:14;;;;;;;14.27;13.05;;;26.90;65.00;;;;;;6244344;22;20021;-73
2023/06/19 12:21:39;;;;;;;14.20;12.75;;;26.90;65.10;;;;;;6243610;22;20091;-75
2023/06/19 12:24:05;;;;;;;14.05;12.73;;;26.80;65.30;;;;;;6271408;22;20071;-74
2023/06/19 12:26:36;;;;;;;14.07;12.80;;;26.80;65.50;;;;;;6271840;22;20777;-74
2023/06/19 12:29:03;;;;;;;12.80;11.60;;;26.80;65.80;;;;;;6269726;22;20443;-75
2023/06/19 12:31:29;;;;;;;14.63;13.23;;;26.80;65.80;;;;;;6244009;22;20345;-76
2023/06/19 12:33:54;;;;;;;17.25;14.20;;;26.80;65.70;;;;;;6269253;22;20074;-78
2023/06/19 12:36:20;;;;;;;17.48;15.77;;;26.80;65.80;;;;;;6271683;22;20011;-73